Time;durP1;ratioP1;P1;durP2;ratioP2;P2;SDS_P1;SDS_P2;PMS_P1;PMS_P2;Temp;Humidity;BMP_temperature;BMP_pressure;BME280_temperature;BME280_humidity;BME280_pressure;Samples;Min_cycle;Max_cycle;Signal;HPM_P1;HPM_P2
2022/05/25 00:01:33;;;;;;;1.27;0.83;;;17.20;82.40;;;;;;6183076;23;20433;-89
2022/05/25 00:04:00;;;;;;;1.53;0.97;;;17.20;82.70;;;;;;6182488;23;20430;-90
2022/05/25 00:06:28;;;;;;;2.40;0.90;;;17.20;82.10;;;;;;6177971;23;20408;-90
2022/05/25 00:08:58;;;;;;;1.80;1.13;;;17.30;81.90;;;;;;6169924;23;20408;-94
2022/05/25 00:11:25;;;;;;;1.50;0.93;;;17.30;82.00;;;;;;6165105;23;20400;-89
2022/05/25 00:13:54;;;;;;;2.43;1.00;;;17.20;81.30;;;;;;6162956;23;20414;-90
2022/05/25 00:16:21;;;;;;;1.70;0.90;;;17.30;80.80;;;;;;6163759;23;20409;-90
2022/05/25 00:21:32;;;;;;;2.07;1.07;;;17.20;80.50;;;;;;6177159;23;20467;-90
2022/05/25 00:23:59;;;;;;;2.10;1.00;;;17.30;80.50;;;;;;6163343;23;20411;-89
2022/05/25 00:26:26;;;;;;;1.97;1.10;;;17.30;80.60;;;;;;6172868;23;20411;-90
2022/05/25 00:28:55;;;;;;;1.93;1.10;;;17.30;80.30;;;;;;6176324;23;20402;-90
2022/05/25 00:31:22;;;;;;;1.87;1.17;;;17.30;80.50;;;;;;6177166;23;20411;-91
2022/05/25 00:33:48;;;;;;;2.33;1.20;;;17.40;80.70;;;;;;6178581;23;20414;-89
2022/05/25 00:36:16;;;;;;;1.90;1.30;;;17.40;80.50;;;;;;6166987;23;20415;-90
2022/05/25 00:38:43;;;;;;;1.83;1.20;;;17.30;81.30;;;;;;6162070;23;20404;-90
2022/05/25 00:41:10;;;;;;;2.40;1.23;;;17.40;81.40;;;;;;6161128;23;20487;-90
2022/05/25 00:43:37;;;;;;;3.53;1.20;;;17.30;81.40;;;;;;6162744;23;20459;-91
2022/05/25 00:46:09;;;;;;;2.80;1.20;;;17.30;81.50;;;;;;6162668;23;20399;-91
2022/05/25 00:48:41;;;;;;;1.40;0.97;;;17.30;81.50;;;;;;6162268;23;20719;-91
2022/05/25 00:51:13;;;;;;;2.00;1.37;;;17.30;81.50;;;;;;6162980;23;20379;-91
2022/05/25 00:53:42;;;;;;;2.20;1.27;;;17.20;81.10;;;;;;6163268;23;20368;-92
2022/05/25 00:56:13;;;;;;;1.43;0.97;;;17.20;81.30;;;;;;6162508;23;20421;-91
2022/05/25 00:58:43;;;;;;;1.40;1.00;;;17.20;81.40;;;;;;6162367;23;20411;-92
2022/05/25 01:01:12;;;;;;;2.50;0.73;;;17.30;81.50;;;;;;6162680;23;20376;-92
2022/05/25 01:03:39;;;;;;;1.77;1.27;;;17.30;81.00;;;;;;6162593;23;20408;-92
2022/05/25 01:06:15;;;;;;;1.77;1.10;;;17.20;81.40;;;;;;6162457;23;20400;-92
2022/05/25 01:08:53;;;;;;;1.93;0.97;;;17.20;81.70;;;;;;6162807;23;20392;-92
2022/05/25 01:11:38;;;;;;;2.70;1.10;;;17.10;81.10;;;;;;6162393;23;20405;-91
2022/05/25 01:14:22;;;;;;;2.87;1.00;;;17.10;81.20;;;;;;6163539;23;20420;-91
2022/05/25 01:17:06;;;;;;;2.37;1.20;;;17.10;81.40;;;;;;6165492;23;20888;-91
2022/05/25 01:19:56;;;;;;;1.50;0.80;;;17.10;82.30;;;;;;6165609;23;20443;-91
2022/05/25 01:22:58;;;;;;;1.83;1.10;;;17.10;82.50;;;;;;6167337;23;20491;-91
2022/05/25 01:25:42;;;;;;;1.40;1.10;;;17.00;82.50;;;;;;6116204;23;20421;-91
2022/05/25 01:28:31;;;;;;;1.50;1.10;;;17.00;82.90;;;;;;6177816;23;20420;-91
2022/05/25 01:31:33;;;;;;;1.60;1.03;;;17.00;83.60;;;;;;6177945;23;20401;-91
2022/05/25 01:34:34;;;;;;;2.20;1.00;;;16.80;83.30;;;;;;6181595;23;20421;-91
2022/05/25 01:40:06;;;;;;;1.50;0.97;;;16.80;84.20;;;;;;6166765;23;20446;-91
2022/05/25 01:42:46;;;;;;;1.67;1.40;;;16.60;84.00;;;;;;6171846;23;20457;-91
2022/05/25 01:48:23;;;;;;;1.43;1.07;;;16.60;85.10;;;;;;6127781;23;20495;-91
2022/05/25 01:51:14;;;;;;;3.93;1.27;;;16.70;84.80;;;;;;6167475;23;20946;-90
2022/05/25 01:57:08;;;;;;;1.30;0.90;;;16.70;85.00;;;;;;6162678;23;20450;-91
2022/05/25 01:59:48;;;;;;;2.10;1.17;;;16.70;84.80;;;;;;6166554;23;20435;-91
2022/05/25 02:05:25;;;;;;;2.10;0.90;;;16.60;84.30;;;;;;6170670;23;20430;-91
2022/05/25 02:08:21;;;;;;;1.97;1.10;;;16.70;84.70;;;;;;6158147;23;20800;-92
2022/05/25 02:11:10;;;;;;;1.30;1.00;;;16.60;85.40;;;;;;6156871;23;20470;-91
2022/05/25 02:14:01;;;;;;;1.40;0.97;;;16.60;85.00;;;;;;6156648;23;20451;-91
2022/05/25 02:16:45;;;;;;;1.50;0.97;;;16.60;84.80;;;;;;6156561;23;20407;-92
2022/05/25 02:19:19;;;;;;;1.70;0.90;;;16.60;85.00;;;;;;6156697;23;20419;-91
2022/05/25 02:21:54;;;;;;;3.33;1.10;;;16.50;84.90;;;;;;6175056;23;20453;-90
2022/05/25 02:24:26;;;;;;;1.23;1.03;;;16.50;83.80;;;;;;6178117;23;20370;-90
2022/05/25 02:26:56;;;;;;;2.90;1.17;;;16.50;82.00;;;;;;6156875;23;20395;-90
2022/05/25 02:29:27;;;;;;;1.50;0.97;;;16.50;82.50;;;;;;6155680;23;20481;-89
2022/05/25 02:31:58;;;;;;;2.20;1.20;;;16.50;83.00;;;;;;6169436;23;20414;-89
2022/05/25 02:34:27;;;;;;;2.07;1.27;;;16.50;83.50;;;;;;6184619;23;20388;-91
2022/05/25 02:36:57;;;;;;;1.50;1.13;;;16.50;83.80;;;;;;6175026;23;20388;-91
2022/05/25 02:39:24;;;;;;;1.70;1.30;;;16.40;84.10;;;;;;6183689;23;20453;-90
2022/05/25 02:41:54;;;;;;;1.90;1.20;;;16.40;84.50;;;;;;6180519;23;20425;-91
2022/05/25 02:44:21;;;;;;;3.00;1.63;;;16.40;84.10;;;;;;6179392;23;20443;-90
2022/05/25 02:46:50;;;;;;;3.00;1.00;;;16.40;84.80;;;;;;6183741;23;20403;-91
2022/05/25 02:49:17;;;;;;;1.83;0.97;;;16.30;85.40;;;;;;6182760;23;20414;-91
2022/05/25 02:51:45;;;;;;;2.60;1.00;;;16.30;85.00;;;;;;6159052;23;20433;-90
2022/05/25 02:54:13;;;;;;;1.23;1.00;;;16.20;84.20;;;;;;6157450;23;20399;-88
2022/05/25 02:56:40;;;;;;;1.93;1.10;;;16.20;84.60;;;;;;6156803;23;20413;-90
2022/05/25 02:59:06;;;;;;;2.80;1.30;;;16.20;83.10;;;;;;6161866;23;20392;-89
2022/05/25 03:01:33;;;;;;;1.80;1.10;;;16.10;83.40;;;;;;6175620;23;20434;-90
2022/05/25 03:04:00;;;;;;;1.37;1.10;;;16.10;84.00;;;;;;6184860;23;20713;-91
2022/05/25 03:06:27;;;;;;;2.07;0.90;;;16.10;84.30;;;;;;6184731;23;20399;-91
2022/05/25 03:08:53;;;;;;;2.90;1.07;;;16.10;84.30;;;;;;6170674;23;20407;-89
2022/05/25 03:11:22;;;;;;;2.00;1.00;;;16.10;84.00;;;;;;6157785;23;20407;-89
2022/05/25 03:13:49;;;;;;;2.00;1.00;;;16.10;84.60;;;;;;6157445;23;20917;-90
2022/05/25 03:16:18;;;;;;;2.50;1.60;;;16.10;85.70;;;;;;6157614;23;20395;-89
2022/05/25 03:18:45;;;;;;;4.13;1.00;;;16.10;84.50;;;;;;6164808;23;20398;-89
2022/05/25 03:21:12;;;;;;;1.50;1.00;;;16.00;84.60;;;;;;6182990;23;20443;-90
2022/05/25 03:23:40;;;;;;;1.73;1.13;;;16.00;84.50;;;;;;6164400;23;20403;-91
2022/05/25 03:26:07;;;;;;;1.20;0.90;;;16.00;83.60;;;;;;6157548;23;20418;-89
2022/05/25 03:28:35;;;;;;;1.40;0.90;;;16.00;83.50;;;;;;6157326;23;20387;-90
2022/05/25 03:31:02;;;;;;;2.07;1.20;;;16.00;83.80;;;;;;6157404;23;20403;-90
2022/05/25 03:33:29;;;;;;;1.60;1.00;;;16.00;83.40;;;;;;6157061;23;20417;-89
2022/05/25 03:35:56;;;;;;;1.40;1.00;;;16.00;83.40;;;;;;6157293;23;20409;-89
2022/05/25 03:38:23;;;;;;;3.50;1.80;;;16.00;83.80;;;;;;6157458;23;20419;-89
2022/05/25 03:40:50;;;;;;;2.17;1.00;;;16.00;83.60;;;;;;6156619;23;20450;-89
2022/05/25 03:43:19;;;;;;;1.57;1.03;;;15.90;83.60;;;;;;6156346;23;20419;-89
2022/05/25 03:45:47;;;;;;;2.70;1.03;;;15.90;83.70;;;;;;6157231;23;20494;-90
2022/05/25 03:48:14;;;;;;;2.77;1.50;;;15.90;83.50;;;;;;6156546;23;20422;-90
2022/05/25 03:50:43;;;;;;;1.20;1.00;;;15.90;84.20;;;;;;6156833;23;20405;-89
2022/05/25 03:53:12;;;;;;;2.10;0.93;;;15.90;83.50;;;;;;6157471;23;20442;-89
2022/05/25 03:55:39;;;;;;;2.70;1.50;;;15.90;83.50;;;;;;6157240;23;20407;-90
2022/05/25 03:58:07;;;;;;;1.83;1.40;;;15.90;83.90;;;;;;6156719;23;20408;-90
2022/05/25 04:00:34;;;;;;;2.23;1.20;;;16.00;83.90;;;;;;6175511;23;20453;-91
2022/05/25 04:03:03;;;;;;;2.90;1.47;;;16.00;83.10;;;;;;6182950;23;20482;-89
2022/05/25 04:05:32;;;;;;;2.83;0.80;;;16.00;83.00;;;;;;6160478;23;20407;-89
2022/05/25 04:08:00;;;;;;;2.50;1.23;;;16.00;83.80;;;;;;6166657;23;20423;-89
2022/05/25 04:10:28;;;;;;;3.33;1.10;;;15.90;83.90;;;;;;6183873;23;20399;-90
2022/05/25 04:12:55;;;;;;;1.83;1.20;;;15.90;84.00;;;;;;6182425;23;20426;-91
2022/05/25 04:15:24;;;;;;;2.50;1.13;;;15.90;82.90;;;;;;6181105;23;20402;-91
2022/05/25 04:17:51;;;;;;;2.70;1.03;;;16.00;82.50;;;;;;6163033;23;20878;-90
2022/05/25 04:20:20;;;;;;;3.43;1.60;;;16.00;81.50;;;;;;6164344;23;20449;-91
2022/05/25 04:22:47;;;;;;;2.00;1.10;;;15.90;82.20;;;;;;6181280;23;20419;-90
2022/05/25 04:25:17;;;;;;;2.27;1.30;;;15.90;82.60;;;;;;6174033;23;20490;-90
2022/05/25 04:27:45;;;;;;;1.93;1.00;;;15.90;82.50;;;;;;6160353;23;20429;-90
2022/05/25 04:30:15;;;;;;;2.60;1.30;;;16.00;81.90;;;;;;6161521;23;20394;-90
2022/05/25 04:32:43;;;;;;;1.73;1.20;;;16.00;81.60;;;;;;6161198;23;20423;-90
2022/05/25 04:35:10;;;;;;;2.87;0.90;;;15.90;81.40;;;;;;6161538;23;20407;-90
2022/05/25 04:37:52;;;;;;;2.57;1.13;;;16.00;81.80;;;;;;6160390;23;20414;-89
2022/05/25 04:40:22;;;;;;;1.50;1.17;;;16.00;81.60;;;;;;6157566;23;20427;-90
2022/05/25 04:42:50;;;;;;;1.87;1.13;;;16.10;81.80;;;;;;6156901;23;20439;-90
2022/05/25 04:45:18;;;;;;;4.53;1.80;;;16.10;82.30;;;;;;6157020;23;20418;-90
2022/05/25 04:47:44;;;;;;;3.57;1.40;;;16.10;81.90;;;;;;6157122;23;20410;-90
2022/05/25 04:50:13;;;;;;;1.90;1.00;;;16.10;81.40;;;;;;6157249;23;20425;-89
2022/05/25 04:52:41;;;;;;;1.40;1.03;;;16.20;81.40;;;;;;6152822;23;20570;-83
2022/05/25 04:55:10;;;;;;;2.13;1.20;;;16.30;81.10;;;;;;6164986;23;20421;-83
2022/05/25 04:57:36;;;;;;;1.50;1.07;;;16.30;81.50;;;;;;6160855;23;20732;-83
2022/05/25 05:00:07;;;;;;;4.07;1.20;;;16.30;81.20;;;;;;6158031;23;20461;-83
2022/05/25 05:02:33;;;;;;;1.93;1.43;;;16.40;81.90;;;;;;6156937;23;20479;-83
2022/05/25 05:05:00;;;;;;;2.13;1.20;;;16.40;80.70;;;;;;6181050;23;20414;-82
2022/05/25 05:07:31;;;;;;;2.07;1.20;;;16.40;81.10;;;;;;6181239;23;20398;-81
2022/05/25 05:10:01;;;;;;;2.00;1.10;;;16.50;80.90;;;;;;6180103;23;20411;-83
2022/05/25 05:12:27;;;;;;;2.00;1.60;;;16.50;81.20;;;;;;6177340;23;20442;-82
2022/05/25 05:14:54;;;;;;;1.90;1.20;;;16.50;81.10;;;;;;6183184;23;20437;-82
2022/05/25 05:17:21;;;;;;;2.90;1.13;;;16.60;81.50;;;;;;6180911;23;20411;-83
2022/05/25 05:19:48;;;;;;;1.90;1.40;;;16.60;80.60;;;;;;6180440;23;20407;-83
2022/05/25 05:22:15;;;;;;;2.57;1.33;;;16.50;80.20;;;;;;6182123;23;20415;-83
2022/05/25 05:24:42;;;;;;;2.07;1.10;;;16.50;80.70;;;;;;6182122;23;20497;-82
2022/05/25 05:27:11;;;;;;;2.33;1.17;;;16.50;80.60;;;;;;6180052;23;20434;-82
2022/05/25 05:29:37;;;;;;;3.80;1.40;;;16.50;80.30;;;;;;6180391;23;20379;-82
2022/05/25 05:32:05;;;;;;;1.93;1.23;;;16.60;80.60;;;;;;6168871;23;20433;-83
2022/05/25 05:34:32;;;;;;;2.03;1.07;;;16.80;80.80;;;;;;6162017;23;20482;-83
2022/05/25 05:37:03;;;;;;;2.40;1.30;;;17.50;79.50;;;;;;6160549;23;20725;-83
2022/05/25 05:39:33;;;;;;;3.23;1.10;;;18.00;77.50;;;;;;6161129;23;20414;-84
2022/05/25 05:42:04;;;;;;;4.90;1.20;;;18.20;76.00;;;;;;6162663;23;20446;-82
2022/05/25 05:44:36;;;;;;;2.33;1.27;;;18.60;73.80;;;;;;6163922;23;20390;-83
2022/05/25 05:47:06;;;;;;;2.40;1.63;;;18.90;72.80;;;;;;6160384;23;20408;-83
2022/05/25 05:49:33;;;;;;;2.47;1.07;;;18.60;72.50;;;;;;6161630;23;20876;-82
2022/05/25 05:52:01;;;;;;;2.27;1.37;;;18.40;73.80;;;;;;6172031;23;20429;-82
2022/05/25 05:54:28;;;;;;;2.70;1.37;;;18.20;74.30;;;;;;6181930;23;20416;-82
2022/05/25 05:56:55;;;;;;;2.60;1.07;;;18.80;74.00;;;;;;6163953;23;20509;-83
2022/05/25 05:59:22;;;;;;;5.10;1.80;;;19.50;72.20;;;;;;6157909;23;20407;-83
2022/05/25 06:01:50;;;;;;;2.07;1.20;;;20.40;68.80;;;;;;6158033;23;20446;-83
2022/05/25 06:04:17;;;;;;;3.30;1.57;;;21.40;66.10;;;;;;6157499;23;20780;-83
2022/05/25 06:06:43;;;;;;;1.80;1.00;;;22.30;63.00;;;;;;6163700;23;20413;-82
2022/05/25 06:09:10;;;;;;;2.60;1.27;;;22.90;61.20;;;;;;6174106;23;20398;-82
2022/05/25 06:11:40;;;;;;;2.17;1.47;;;22.70;59.40;;;;;;6159076;23;20406;-83
2022/05/25 06:14:07;;;;;;;2.60;1.40;;;22.80;60.50;;;;;;6158344;23;20482;-82
2022/05/25 06:19:29;;;;;;;1.93;1.57;;;23.70;57.20;;;;;;6157388;23;20385;-83
2022/05/25 06:21:58;;;;;;;4.60;1.53;;;23.20;58.20;;;;;;6156248;23;20451;-89
2022/05/25 06:24:25;;;;;;;1.80;0.83;;;23.20;58.20;;;;;;6156462;23;20391;-83
2022/05/25 06:26:52;;;;;;;3.80;1.50;;;23.10;58.40;;;;;;6163013;23;20782;-84
2022/05/25 06:29:20;;;;;;;1.70;1.20;;;22.70;58.10;;;;;;6159874;23;20410;-83
2022/05/25 06:31:48;;;;;;;2.30;1.30;;;22.30;58.90;;;;;;6179703;23;20410;-82
2022/05/25 06:34:15;;;;;;;1.63;1.00;;;22.00;60.10;;;;;;6166426;23;20601;-85
2022/05/25 06:36:43;;;;;;;4.83;1.40;;;21.90;60.30;;;;;;6157367;23;20401;-83
2022/05/25 06:39:10;;;;;;;2.43;1.50;;;21.80;59.70;;;;;;6157550;23;20882;-83
2022/05/25 06:41:37;;;;;;;2.20;1.20;;;21.80;60.60;;;;;;6158264;23;20448;-83
2022/05/25 06:44:05;;;;;;;3.40;1.40;;;21.70;60.10;;;;;;6159174;23;20412;-83
2022/05/25 06:46:31;;;;;;;3.50;1.03;;;21.90;60.40;;;;;;6158310;23;20464;-83
2022/05/25 06:48:58;;;;;;;4.70;1.30;;;22.10;59.70;;;;;;6160691;23;20409;-84
2022/05/25 06:51:27;;;;;;;3.20;1.20;;;21.90;59.50;;;;;;6170674;23;20428;-83
2022/05/25 06:53:56;;;;;;;2.90;1.20;;;21.50;60.00;;;;;;6166139;23;20830;-83
2022/05/25 06:56:24;;;;;;;2.93;1.07;;;21.50;60.80;;;;;;6158481;23;20751;-83
2022/05/25 06:58:52;;;;;;;3.20;1.23;;;21.60;62.10;;;;;;6157300;23;20442;-83
2022/05/25 07:01:19;;;;;;;2.70;1.40;;;22.50;59.80;;;;;;6157125;23;20452;-83
2022/05/25 07:03:49;;;;;;;3.20;1.20;;;22.60;59.10;;;;;;6166930;23;20432;-84
2022/05/25 07:06:18;;;;;;;3.23;1.40;;;22.20;59.30;;;;;;6170092;23;20397;-80
2022/05/25 07:08:45;;;;;;;2.90;1.40;;;22.00;59.40;;;;;;6182349;23;20389;-82
2022/05/25 07:11:14;;;;;;;2.20;1.30;;;22.10;59.90;;;;;;6179826;23;20420;-82
2022/05/25 07:13:41;;;;;;;2.70;1.10;;;22.00;60.20;;;;;;6177584;23;20481;-83
2022/05/25 07:16:10;;;;;;;2.27;1.20;;;22.40;60.50;;;;;;6169384;23;20408;-83
2022/05/25 07:18:37;;;;;;;2.20;1.80;;;23.20;59.10;;;;;;6159953;23;20490;-82
2022/05/25 07:21:06;;;;;;;1.83;1.13;;;24.30;56.80;;;;;;6159710;23;20438;-83
2022/05/25 07:23:33;;;;;;;4.07;1.50;;;25.70;54.70;;;;;;6157944;23;20522;-83
2022/05/25 07:26:00;;;;;;;5.20;1.40;;;27.30;52.10;;;;;;6156790;23;20933;-84
2022/05/25 07:28:28;;;;;;;1.50;1.03;;;28.50;49.30;;;;;;6156671;23;20414;-83
2022/05/25 07:31:02;;;;;;;2.80;1.17;;;28.00;47.30;;;;;;6159335;23;20413;-80
2022/05/25 07:33:30;;;;;;;2.40;1.37;;;28.00;47.70;;;;;;6159366;23;20434;-80
2022/05/25 07:35:57;;;;;;;4.13;1.33;;;27.60;48.50;;;;;;6162135;23;20402;-80
2022/05/25 07:38:25;;;;;;;3.57;1.10;;;27.40;48.60;;;;;;6161205;23;20410;-80
2022/05/25 07:40:52;;;;;;;3.43;1.60;;;27.80;48.30;;;;;;6160940;23;20438;-80
2022/05/25 07:43:22;;;;;;;1.90;0.93;;;27.30;47.20;;;;;;6161370;23;20433;-80
2022/05/25 07:45:50;;;;;;;2.33;1.03;;;27.50;47.90;;;;;;6160963;23;20391;-81
2022/05/25 07:48:17;;;;;;;6.80;2.07;;;26.50;48.60;;;;;;6162326;23;20411;-80
2022/05/25 07:50:44;;;;;;;2.50;1.50;;;26.80;49.00;;;;;;6161113;23;20477;-81
2022/05/25 07:56:00;;;;;;;3.30;1.20;;;27.40;46.60;;;;;;6163640;23;20434;-81
2022/05/25 07:58:27;;;;;;;3.53;1.50;;;27.10;47.50;;;;;;6160844;23;20403;-81
2022/05/25 08:00:56;;;;;;;3.63;2.30;;;28.90;46.40;;;;;;6161045;23;20391;-80
2022/05/25 08:06:09;;;;;;;2.23;1.57;;;29.20;43.50;;;;;;6160740;23;20873;-80
2022/05/25 08:08:36;;;;;;;3.60;1.60;;;28.60;43.20;;;;;;6160671;23;20469;-80
2022/05/25 08:11:06;;;;;;;3.63;1.20;;;28.50;43.70;;;;;;6161753;23;20467;-80
2022/05/25 08:13:35;;;;;;;4.27;1.20;;;28.40;43.60;;;;;;6161232;23;20427;-80
2022/05/25 08:16:04;;;;;;;1.67;1.13;;;27.50;44.60;;;;;;6161590;23;20435;-79
2022/05/25 08:18:31;;;;;;;2.37;1.40;;;26.90;45.00;;;;;;6172971;23;20403;-80
2022/05/25 08:20:57;;;;;;;2.47;0.90;;;26.20;45.90;;;;;;6178172;23;20443;-80
2022/05/25 08:23:24;;;;;;;2.80;1.33;;;25.50;47.00;;;;;;6166461;23;20441;-80
2022/05/25 08:25:51;;;;;;;2.87;1.30;;;25.60;47.90;;;;;;6165735;23;20395;-79
2022/05/25 08:28:18;;;;;;;2.07;1.43;;;25.70;48.00;;;;;;6179997;23;20420;-80
2022/05/25 08:30:46;;;;;;;3.60;1.00;;;26.30;47.50;;;;;;6171002;23;20734;-80
2022/05/25 08:33:17;;;;;;;1.90;1.10;;;27.70;45.60;;;;;;6162308;23;21043;-81
2022/05/25 08:35:45;;;;;;;2.50;1.13;;;27.40;45.60;;;;;;6164666;23;20388;-81
2022/05/25 08:38:12;;;;;;;2.63;1.40;;;26.30;46.50;;;;;;6165826;23;20448;-81
2022/05/25 08:40:41;;;;;;;4.20;1.43;;;26.60;46.10;;;;;;6161471;23;20437;-80
2022/05/25 08:43:17;;;;;;;2.93;2.03;;;27.00;46.10;;;;;;6159970;23;20449;-81
2022/05/25 08:45:48;;;;;;;3.37;1.97;;;29.20;44.60;;;;;;6159772;23;20422;-81
2022/05/25 08:48:20;;;;;;;1.90;1.10;;;30.60;42.10;;;;;;6160390;23;20406;-80
2022/05/25 08:50:53;;;;;;;2.37;1.47;;;31.30;40.00;;;;;;6161751;23;20399;-83
2022/05/25 08:53:23;;;;;;;1.60;1.27;;;31.50;39.90;;;;;;6167006;23;20439;-84
2022/05/25 08:55:59;;;;;;;4.17;1.70;;;32.50;38.80;;;;;;6158458;23;20422;-84
2022/05/25 08:58:34;;;;;;;1.30;0.70;;;33.80;37.50;;;;;;6158678;23;20437;-84
2022/05/25 09:01:04;;;;;;;2.50;1.20;;;35.10;35.40;;;;;;6157438;23;20402;-83
2022/05/25 09:03:40;;;;;;;2.60;1.23;;;35.10;33.60;;;;;;6156747;23;20426;-82
2022/05/25 09:06:16;;;;;;;4.70;1.00;;;32.50;35.60;;;;;;6156642;23;20712;-83
2022/05/25 09:08:49;;;;;;;1.87;1.10;;;30.60;37.60;;;;;;6163005;23;20770;-83
2022/05/25 09:11:19;;;;;;;4.10;1.77;;;29.10;40.80;;;;;;6158045;23;20876;-83
2022/05/25 09:13:52;;;;;;;3.33;1.63;;;27.80;42.10;;;;;;6169167;23;20440;-83
2022/05/25 09:16:22;;;;;;;5.77;2.27;;;26.80;43.80;;;;;;6172638;23;20391;-83
2022/05/25 09:19:00;;;;;;;3.00;1.50;;;26.00;46.10;;;;;;6158274;23;20450;-83
2022/05/25 09:21:31;;;;;;;3.83;2.10;;;26.10;46.00;;;;;;6157106;23;20429;-83
2022/05/25 09:23:59;;;;;;;2.27;1.40;;;28.70;43.60;;;;;;6157091;23;20430;-82
2022/05/25 09:26:26;;;;;;;3.57;0.90;;;31.20;40.70;;;;;;6156725;23;20407;-83
2022/05/25 09:28:58;;;;;;;2.90;1.17;;;33.40;37.60;;;;;;6156422;23;21081;-83
2022/05/25 09:31:31;;;;;;;4.57;1.13;;;34.40;35.50;;;;;;6164163;23;20391;-83
2022/05/25 09:34:03;;;;;;;4.10;1.37;;;35.40;33.80;;;;;;6181196;23;20431;-82
2022/05/25 09:36:37;;;;;;;1.83;1.00;;;34.50;34.40;;;;;;6176436;23;20395;-84
2022/05/25 09:39:12;;;;;;;2.57;1.10;;;35.50;33.40;;;;;;6172306;23;20394;-84
2022/05/25 09:41:43;;;;;;;3.23;1.20;;;34.50;33.00;;;;;;6178350;23;20426;-83
2022/05/25 09:44:12;;;;;;;3.10;1.13;;;34.30;33.60;;;;;;6179303;23;20403;-84
2022/05/25 09:46:43;;;;;;;3.43;1.30;;;34.50;32.70;;;;;;6182717;23;20457;-82
2022/05/25 09:49:25;;;;;;;2.87;2.10;;;35.80;32.70;;;;;;6167983;23;20391;-82
2022/05/25 09:51:53;;;;;;;2.20;1.50;;;35.40;31.60;;;;;;6160570;23;20387;-83
2022/05/25 09:54:25;;;;;;;4.90;1.77;;;34.00;33.20;;;;;;6162348;23;20946;-83
2022/05/25 09:56:55;;;;;;;1.60;1.23;;;34.10;34.00;;;;;;6161013;23;20419;-84
2022/05/25 09:59:26;;;;;;;3.07;1.83;;;34.10;33.90;;;;;;6163151;23;20403;-83
2022/05/25 10:01:54;;;;;;;2.10;1.30;;;33.40;33.80;;;;;;6159291;23;20433;-85
2022/05/25 10:04:51;;;;;;;1.97;1.40;;;33.40;33.70;;;;;;6158236;23;20414;-83
2022/05/25 10:07:21;;;;;;;2.30;1.23;;;34.30;33.00;;;;;;6158580;23;20390;-85
2022/05/25 10:09:51;;;;;;;5.60;1.20;;;35.60;32.30;;;;;;6158559;23;20390;-84
2022/05/25 10:12:24;;;;;;;3.60;1.27;;;35.50;30.70;;;;;;6159932;23;20965;-83
2022/05/25 10:14:57;;;;;;;1.60;1.10;;;33.70;30.80;;;;;;6160460;23;20395;-84
2022/05/25 10:17:33;;;;;;;2.63;1.40;;;33.40;32.90;;;;;;6158539;23;20433;-84
2022/05/25 10:20:06;;;;;;;2.40;1.23;;;34.50;31.30;;;;;;6159076;23;20807;-83
2022/05/25 10:22:38;;;;;;;2.47;0.93;;;33.70;32.00;;;;;;6162892;23;20792;-86
2022/05/25 10:25:09;;;;;;;1.20;0.80;;;33.40;31.80;;;;;;6158004;23;20398;-83
2022/05/25 10:27:40;;;;;;;3.50;1.50;;;33.30;33.00;;;;;;6168226;23;20485;-83
2022/05/25 10:39:16;;;;;;;2.10;1.20;;;32.20;34.30;;;;;;6158457;23;20379;-84
2022/05/25 10:41:45;;;;;;;3.70;1.40;;;32.20;34.80;;;;;;6171650;23;20391;-83
2022/05/25 10:44:17;;;;;;;2.23;1.00;;;31.90;34.50;;;;;;6170284;23;20403;-84
2022/05/25 10:46:55;;;;;;;2.33;1.10;;;30.70;35.00;;;;;;6157557;23;20943;-83
2022/05/25 10:49:29;;;;;;;3.73;1.17;;;29.30;36.70;;;;;;6159442;23;20881;-83
2022/05/25 10:52:03;;;;;;;4.23;1.27;;;28.00;38.30;;;;;;6160490;23;20433;-84
2022/05/25 10:54:50;;;;;;;4.97;2.83;;;27.10;40.10;;;;;;6167119;23;20506;-87
2022/05/25 10:58:05;;;;;;;7.27;1.70;;;26.30;40.80;;;;;;6181896;23;20420;-87
2022/05/25 11:00:45;;;;;;;2.20;0.90;;;25.60;42.40;;;;;;6110374;23;20411;-88
2022/05/25 11:03:45;;;;;;;4.23;1.10;;;25.20;43.30;;;;;;6162775;23;20450;-88
2022/05/25 11:06:28;;;;;;;3.67;1.70;;;25.00;43.60;;;;;;6161852;23;20395;-88
2022/05/25 11:09:12;;;;;;;4.23;1.40;;;25.40;43.20;;;;;;6178218;23;20449;-88
2022/05/25 11:11:50;;;;;;;3.13;1.30;;;27.50;41.70;;;;;;6177365;23;20411;-89
2022/05/25 11:14:32;;;;;;;2.80;1.03;;;30.60;38.60;;;;;;6162058;23;20434;-88
2022/05/25 11:17:08;;;;;;;1.70;0.80;;;33.00;35.70;;;;;;6160887;23;20395;-88
2022/05/25 11:19:59;;;;;;;2.13;1.30;;;34.10;32.10;;;;;;6161921;23;20401;-88
2022/05/25 11:22:36;;;;;;;3.40;1.40;;;34.90;31.00;;;;;;6160859;23;20782;-87
2022/05/25 11:25:25;;;;;;;2.47;1.07;;;33.50;31.30;;;;;;6161615;23;20395;-88
2022/05/25 11:28:08;;;;;;;3.27;1.13;;;31.00;34.50;;;;;;6162405;23;20414;-89
2022/05/25 11:30:40;;;;;;;4.03;1.60;;;29.10;37.00;;;;;;6161740;23;20398;-87
2022/05/25 11:33:27;;;;;;;1.60;0.90;;;28.30;38.30;;;;;;6161189;23;20770;-87
2022/05/25 11:36:05;;;;;;;2.93;1.00;;;27.50;39.30;;;;;;6160761;23;20404;-88
2022/05/25 11:38:47;;;;;;;4.43;1.47;;;26.90;40.80;;;;;;6178422;23;20399;-88
2022/05/25 11:41:29;;;;;;;2.27;1.37;;;26.60;40.90;;;;;;6172641;23;20730;-88
2022/05/25 11:44:12;;;;;;;2.80;1.00;;;26.30;41.30;;;;;;6161559;23;20438;-87
2022/05/25 11:46:43;;;;;;;4.40;1.27;;;26.10;41.90;;;;;;6161349;23;20397;-87
2022/05/25 11:49:39;;;;;;;4.97;2.13;;;28.10;40.20;;;;;;6160779;23;20397;-88
2022/05/25 11:52:21;;;;;;;1.93;0.80;;;30.00;37.80;;;;;;6166024;23;20399;-88
2022/05/25 11:55:03;;;;;;;4.50;0.90;;;29.10;36.80;;;;;;6165226;23;20417;-88
2022/05/25 11:57:45;;;;;;;2.10;1.00;;;29.40;36.60;;;;;;6162580;23;20387;-88
2022/05/25 12:00:26;;;;;;;1.47;0.90;;;29.10;36.60;;;;;;6160876;23;20406;-88
2022/05/25 12:03:26;;;;;;;2.50;0.80;;;29.90;37.00;;;;;;6169967;23;20464;-88
2022/05/25 12:06:06;;;;;;;3.30;1.10;;;31.80;35.00;;;;;;6168764;23;20411;-88
2022/05/25 12:09:01;;;;;;;2.00;1.40;;;34.70;32.80;;;;;;6179274;23;20737;-88
2022/05/25 12:11:36;;;;;;;2.13;1.07;;;34.60;31.40;;;;;;6183648;23;20379;-88
2022/05/25 12:14:23;;;;;;;1.60;0.90;;;32.50;32.40;;;;;;6183055;23;20437;-88
2022/05/25 12:16:53;;;;;;;2.30;1.13;;;30.50;35.20;;;;;;6166385;23;20441;-88
2022/05/25 12:19:25;;;;;;;4.33;1.30;;;32.40;33.90;;;;;;6162155;23;20402;-84
2022/05/25 12:21:56;;;;;;;1.67;1.00;;;32.00;33.80;;;;;;6161157;23;20383;-86
2022/05/25 12:24:27;;;;;;;5.30;1.40;;;32.40;33.90;;;;;;6161436;23;20423;-88
2022/05/25 12:26:56;;;;;;;1.93;0.80;;;31.50;33.50;;;;;;6163714;23;20391;-86
2022/05/25 12:29:30;;;;;;;1.50;1.20;;;30.10;35.10;;;;;;6165961;23;20474;-86
2022/05/25 12:31:58;;;;;;;3.03;1.20;;;29.30;36.10;;;;;;6165566;23;20370;-86
2022/05/25 12:34:31;;;;;;;3.17;1.17;;;30.00;36.50;;;;;;6174705;23;20427;-87
2022/05/25 12:36:59;;;;;;;2.43;1.00;;;31.30;34.40;;;;;;6173378;23;20387;-86
2022/05/25 12:39:59;;;;;;;2.17;1.40;;;32.90;32.60;;;;;;6171756;23;20410;-86
2022/05/25 12:42:34;;;;;;;2.33;1.00;;;33.40;32.10;;;;;;6171437;23;20426;-86
2022/05/25 12:50:52;;;;;;;1.40;0.80;;;36.50;28.90;;;;;;6163522;23;20789;-86
2022/05/25 12:53:37;;;;;;;1.83;1.53;;;34.20;30.90;;;;;;6161781;23;20434;-86
2022/05/25 12:56:06;;;;;;;2.20;0.90;;;35.00;30.00;;;;;;6161483;23;20383;-87
2022/05/25 12:58:43;;;;;;;3.50;0.80;;;37.00;29.20;;;;;;6182011;23;20399;-87
2022/05/25 13:01:34;;;;;;;2.63;1.50;;;37.70;28.50;;;;;;6182816;23;20375;-87
2022/05/25 13:04:21;;;;;;;3.07;1.63;;;37.40;28.00;;;;;;6180718;23;20521;-86
2022/05/25 13:07:20;;;;;;;1.87;1.57;;;34.20;29.40;;;;;;6161772;23;20398;-86
2022/05/25 13:09:48;;;;;;;4.73;1.87;;;32.10;31.70;;;;;;6175261;23;20395;-86
2022/05/25 13:12:43;;;;;;;1.90;1.03;;;30.30;34.10;;;;;;6182158;23;20390;-86
2022/05/25 13:15:31;;;;;;;2.13;1.07;;;28.60;35.10;;;;;;6166212;23;20395;-87
2022/05/25 13:18:00;;;;;;;2.30;1.37;;;28.80;36.00;;;;;;6161744;23;20397;-86
2022/05/25 13:20:59;;;;;;;6.20;1.73;;;28.50;36.30;;;;;;6160776;23;20756;-87
2022/05/25 13:24:03;;;;;;;2.03;1.30;;;29.90;35.80;;;;;;6159853;23;20453;-87
2022/05/25 13:26:41;;;;;;;3.50;1.40;;;31.10;34.20;;;;;;6160949;23;20413;-87
2022/05/25 13:29:17;;;;;;;1.83;1.07;;;31.40;32.90;;;;;;6159875;23;20418;-86
2022/05/25 13:31:49;;;;;;;2.53;0.90;;;31.30;33.40;;;;;;6177826;23;20394;-87
2022/05/25 13:34:19;;;;;;;1.70;1.00;;;32.20;32.70;;;;;;6178654;23;20799;-86
2022/05/25 13:36:51;;;;;;;1.77;0.93;;;34.10;31.20;;;;;;6161928;23;20396;-87
2022/05/25 13:39:21;;;;;;;2.27;1.03;;;35.70;30.30;;;;;;6158776;23;20932;-87
2022/05/25 13:41:55;;;;;;;2.33;1.07;;;34.80;29.30;;;;;;6158634;23;20917;-87
2022/05/25 13:44:25;;;;;;;4.40;1.17;;;33.10;30.30;;;;;;6167831;23;20430;-86
2022/05/25 13:46:53;;;;;;;2.90;0.97;;;31.40;32.60;;;;;;6173861;23;20394;-86
2022/05/25 13:49:28;;;;;;;3.67;1.00;;;31.50;33.10;;;;;;6177080;23;20399;-87
2022/05/25 13:52:12;;;;;;;2.93;1.10;;;33.00;32.10;;;;;;6145147;23;20430;-87
2022/05/25 13:54:41;;;;;;;1.53;0.70;;;35.00;29.90;;;;;;6170102;23;20973;-87